sensor_id;sensor_type;location;lat;lon;timestamp;P1;durP1;ratioP1;P2;durP2;ratioP2
57985;SDS011;43788;42.670;23.330;2024-03-07T00:00:05;2.60;;;1.60;;
57985;SDS011;43788;42.670;23.330;2024-03-07T00:02:39;1.33;;;1.23;;
57985;SDS011;43788;42.670;23.330;2024-03-07T00:05:08;1.60;;;1.50;;
57985;SDS011;43788;42.670;23.330;2024-03-07T00:07:33;1.50;;;1.20;;
57985;SDS011;43788;42.670;23.330;2024-03-07T00:09:59;1.42;;;1.33;;
57985;SDS011;43788;42.670;23.330;2024-03-07T00:12:25;1.13;;;1.02;;
57985;SDS011;43788;42.670;23.330;2024-03-07T00:14:52;1.30;;;1.20;;
57985;SDS011;43788;42.670;23.330;2024-03-07T00:17:17;1.40;;;1.30;;
57985;SDS011;43788;42.670;23.330;2024-03-07T00:19:44;2.17;;;1.40;;
57985;SDS011;43788;42.670;23.330;2024-03-07T00:22:10;1.55;;;1.45;;
57985;SDS011;43788;42.670;23.330;2024-03-07T00:24:35;1.38;;;1.10;;
57985;SDS011;43788;42.670;23.330;2024-03-07T00:27:02;2.40;;;1.27;;
57985;SDS011;43788;42.670;23.330;2024-03-07T00:29:28;1.02;;;0.98;;
57985;SDS011;43788;42.670;23.330;2024-03-07T00:31:54;0.95;;;0.88;;
57985;SDS011;43788;42.670;23.330;2024-03-07T00:34:19;1.45;;;1.35;;
57985;SDS011;43788;42.670;23.330;2024-03-07T00:36:46;1.30;;;1.20;;
57985;SDS011;43788;42.670;23.330;2024-03-07T00:39:11;1.00;;;0.90;;
57985;SDS011;43788;42.670;23.330;2024-03-07T00:41:38;1.25;;;1.15;;
57985;SDS011;43788;42.670;23.330;2024-03-07T00:44:04;1.48;;;1.38;;
57985;SDS011;43788;42.670;23.330;2024-03-07T00:46:29;0.88;;;0.88;;
57985;SDS011;43788;42.670;23.330;2024-03-07T00:48:54;1.33;;;1.02;;
57985;SDS011;43788;42.670;23.330;2024-03-07T00:51:20;1.08;;;1.00;;
57985;SDS011;43788;42.670;23.330;2024-03-07T00:53:45;1.33;;;0.95;;
57985;SDS011;43788;42.670;23.330;2024-03-07T00:56:12;1.10;;;1.00;;
57985;SDS011;43788;42.670;23.330;2024-03-07T00:58:37;1.27;;;1.23;;
57985;SDS011;43788;42.670;23.330;2024-03-07T01:01:03;1.70;;;0.85;;
57985;SDS011;43788;42.670;23.330;2024-03-07T01:03:28;1.10;;;0.98;;
57985;SDS011;43788;42.670;23.330;2024-03-07T01:05:54;1.30;;;1.20;;
57985;SDS011;43788;42.670;23.330;2024-03-07T01:08:19;1.17;;;1.08;;
57985;SDS011;43788;42.670;23.330;2024-03-07T01:10:45;0.77;;;0.75;;
57985;SDS011;43788;42.670;23.330;2024-03-07T01:13:10;0.98;;;0.98;;
57985;SDS011;43788;42.670;23.330;2024-03-07T01:15:44;1.42;;;1.17;;
57985;SDS011;43788;42.670;23.330;2024-03-07T01:18:10;1.38;;;0.90;;
57985;SDS011;43788;42.670;23.330;2024-03-07T01:20:35;1.00;;;1.00;;
57985;SDS011;43788;42.670;23.330;2024-03-07T01:23:00;0.95;;;0.90;;
57985;SDS011;43788;42.670;23.330;2024-03-07T01:25:26;0.80;;;0.80;;
57985;SDS011;43788;42.670;23.330;2024-03-07T01:27:52;1.48;;;1.27;;
57985;SDS011;43788;42.670;23.330;2024-03-07T01:30:17;0.80;;;0.80;;
57985;SDS011;43788;42.670;23.330;2024-03-07T01:32:43;0.95;;;0.82;;
57985;SDS011;43788;42.670;23.330;2024-03-07T01:35:08;1.08;;;0.98;;
57985;SDS011;43788;42.670;23.330;2024-03-07T01:37:35;1.20;;;1.10;;
57985;SDS011;43788;42.670;23.330;2024-03-07T01:40:02;1.27;;;1.15;;
57985;SDS011;43788;42.670;23.330;2024-03-07T01:42:28;0.77;;;0.77;;
57985;SDS011;43788;42.670;23.330;2024-03-07T01:44:54;1.10;;;1.00;;
57985;SDS011;43788;42.670;23.330;2024-03-07T01:47:19;2.42;;;1.00;;
57985;SDS011;43788;42.670;23.330;2024-03-07T01:49:44;1.25;;;1.15;;
57985;SDS011;43788;42.670;23.330;2024-03-07T01:52:10;0.93;;;0.85;;
57985;SDS011;43788;42.670;23.330;2024-03-07T01:54:36;1.60;;;1.23;;
57985;SDS011;43788;42.670;23.330;2024-03-07T01:57:02;1.23;;;1.13;;
57985;SDS011;43788;42.670;23.330;2024-03-07T01:59:29;0.90;;;0.82;;
57985;SDS011;43788;42.670;23.330;2024-03-07T02:01:56;0.98;;;0.70;;
57985;SDS011;43788;42.670;23.330;2024-03-07T02:04:21;1.20;;;1.10;;
57985;SDS011;43788;42.670;23.330;2024-03-07T02:06:49;1.27;;;1.17;;
57985;SDS011;43788;42.670;23.330;2024-03-07T02:09:15;2.92;;;1.15;;
57985;SDS011;43788;42.670;23.330;2024-03-07T02:11:40;1.00;;;0.90;;
57985;SDS011;43788;42.670;23.330;2024-03-07T02:14:06;1.15;;;1.08;;
57985;SDS011;43788;42.670;23.330;2024-03-07T02:16:31;0.93;;;0.82;;
57985;SDS011;43788;42.670;23.330;2024-03-07T02:18:57;1.33;;;1.00;;
57985;SDS011;43788;42.670;23.330;2024-03-07T02:21:24;0.70;;;0.70;;
57985;SDS011;43788;42.670;23.330;2024-03-07T02:23:49;0.95;;;0.88;;
57985;SDS011;43788;42.670;23.330;2024-03-07T02:26:15;0.90;;;0.90;;
57985;SDS011;43788;42.670;23.330;2024-03-07T02:28:40;1.05;;;0.75;;
57985;SDS011;43788;42.670;23.330;2024-03-07T02:31:06;0.45;;;0.45;;
57985;SDS011;43788;42.670;23.330;2024-03-07T02:33:31;0.20;;;0.20;;
57985;SDS011;43788;42.670;23.330;2024-03-07T02:35:57;0.57;;;0.40;;
57985;SDS011;43788;42.670;23.330;2024-03-07T02:38:23;0.10;;;0.10;;
57985;SDS011;43788;42.670;23.330;2024-03-07T02:40:48;0.10;;;0.10;;
57985;SDS011;43788;42.670;23.330;2024-03-07T02:43:13;0.00;;;0.00;;
57985;SDS011;43788;42.670;23.330;2024-03-07T02:45:39;0.13;;;0.10;;
57985;SDS011;43788;42.670;23.330;2024-03-07T02:48:04;0.05;;;0.03;;
57985;SDS011;43788;42.670;23.330;2024-03-07T02:50:34;0.13;;;0.13;;
57985;SDS011;43788;42.670;23.330;2024-03-07T02:53:02;0.20;;;0.20;;
57985;SDS011;43788;42.670;23.330;2024-03-07T02:55:28;0.10;;;0.10;;
57985;SDS011;43788;42.670;23.330;2024-03-07T02:57:54;0.15;;;0.15;;
57985;SDS011;43788;42.670;23.330;2024-03-07T03:00:19;0.10;;;0.10;;
57985;SDS011;43788;42.670;23.330;2024-03-07T03:02:45;0.10;;;0.10;;
57985;SDS011;43788;42.670;23.330;2024-03-07T03:05:13;0.00;;;0.00;;
57985;SDS011;43788;42.670;23.330;2024-03-07T03:07:39;0.05;;;0.05;;
57985;SDS011;43788;42.670;23.330;2024-03-07T03:10:05;0.10;;;0.10;;
57985;SDS011;43788;42.670;23.330;2024-03-07T03:12:34;0.10;;;0.10;;
57985;SDS011;43788;42.670;23.330;2024-03-07T03:15:02;0.10;;;0.05;;
57985;SDS011;43788;42.670;23.330;2024-03-07T03:17:30;0.10;;;0.10;;
57985;SDS011;43788;42.670;23.330;2024-03-07T03:19:55;0.08;;;0.00;;
57985;SDS011;43788;42.670;23.330;2024-03-07T03:22:21;0.00;;;0.00;;
57985;SDS011;43788;42.670;23.330;2024-03-07T03:24:47;0.00;;;0.00;;
57985;SDS011;43788;42.670;23.330;2024-03-07T03:27:12;0.10;;;0.10;;
57985;SDS011;43788;42.670;23.330;2024-03-07T03:29:37;0.00;;;0.00;;
57985;SDS011;43788;42.670;23.330;2024-03-07T03:32:03;0.03;;;0.00;;
57985;SDS011;43788;42.670;23.330;2024-03-07T03:34:29;0.10;;;0.10;;
57985;SDS011;43788;42.670;23.330;2024-03-07T03:36:54;0.20;;;0.20;;
57985;SDS011;43788;42.670;23.330;2024-03-07T03:39:20;0.10;;;0.10;;
57985;SDS011;43788;42.670;23.330;2024-03-07T03:41:45;0.10;;;0.10;;
57985;SDS011;43788;42.670;23.330;2024-03-07T03:44:11;0.00;;;0.00;;
57985;SDS011;43788;42.670;23.330;2024-03-07T03:46:36;1.13;;;0.13;;
57985;SDS011;43788;42.670;23.330;2024-03-07T03:49:02;0.20;;;0.20;;
57985;SDS011;43788;42.670;23.330;2024-03-07T03:51:27;0.20;;;0.20;;
57985;SDS011;43788;42.670;23.330;2024-03-07T03:53:53;0.10;;;0.10;;
57985;SDS011;43788;42.670;23.330;2024-03-07T03:56:18;0.10;;;0.10;;
57985;SDS011;43788;42.670;23.330;2024-03-07T03:58:44;0.00;;;0.00;;
57985;SDS011;43788;42.670;23.330;2024-03-07T04:01:09;0.10;;;0.10;;
57985;SDS011;43788;42.670;23.330;2024-03-07T04:03:38;0.10;;;0.10;;
57985;SDS011;43788;42.670;23.330;2024-03-07T04:06:04;0.05;;;0.05;;
57985;SDS011;43788;42.670;23.330;2024-03-07T04:08:30;0.00;;;0.00;;
57985;SDS011;43788;42.670;23.330;2024-03-07T04:10:55;0.00;;;0.00;;
57985;SDS011;43788;42.670;23.330;2024-03-07T04:13:21;0.10;;;0.10;;
57985;SDS011;43788;42.670;23.330;2024-03-07T04:15:47;0.10;;;0.00;;
57985;SDS011;43788;42.670;23.330;2024-03-07T04:18:13;0.00;;;0.00;;
57985;SDS011;43788;42.670;23.330;2024-03-07T04:20:38;0.10;;;0.10;;
57985;SDS011;43788;42.670;23.330;2024-03-07T04:23:04;0.10;;;0.10;;
57985;SDS011;43788;42.670;23.330;2024-03-07T04:25:30;0.00;;;0.00;;
57985;SDS011;43788;42.670;23.330;2024-03-07T04:27:58;0.20;;;0.13;;
57985;SDS011;43788;42.670;23.330;2024-03-07T04:30:24;0.00;;;0.00;;
57985;SDS011;43788;42.670;23.330;2024-03-07T04:32:49;0.03;;;0.00;;
57985;SDS011;43788;42.670;23.330;2024-03-07T04:35:14;0.00;;;0.00;;
57985;SDS011;43788;42.670;23.330;2024-03-07T04:37:40;0.00;;;0.00;;
57985;SDS011;43788;42.670;23.330;2024-03-07T04:40:07;0.03;;;0.03;;
57985;SDS011;43788;42.670;23.330;2024-03-07T04:42:41;0.00;;;0.00;;
57985;SDS011;43788;42.670;23.330;2024-03-07T04:45:08;0.00;;;0.00;;
57985;SDS011;43788;42.670;23.330;2024-03-07T04:47:36;0.00;;;0.00;;
57985;SDS011;43788;42.670;23.330;2024-03-07T04:50:02;0.17;;;0.10;;
57985;SDS011;43788;42.670;23.330;2024-03-07T04:52:27;0.10;;;0.10;;
57985;SDS011;43788;42.670;23.330;2024-03-07T04:54:53;0.00;;;0.00;;
57985;SDS011;43788;42.670;23.330;2024-03-07T04:57:18;0.00;;;0.00;;
57985;SDS011;43788;42.670;23.330;2024-03-07T04:59:44;0.00;;;0.00;;
57985;SDS011;43788;42.670;23.330;2024-03-07T05:02:09;0.00;;;0.00;;
57985;SDS011;43788;42.670;23.330;2024-03-07T05:04:35;1.20;;;0.00;;
57985;SDS011;43788;42.670;23.330;2024-03-07T05:07:01;0.00;;;0.00;;
57985;SDS011;43788;42.670;23.330;2024-03-07T05:09:28;0.03;;;0.03;;
57985;SDS011;43788;42.670;23.330;2024-03-07T05:11:53;0.10;;;0.10;;
57985;SDS011;43788;42.670;23.330;2024-03-07T05:14:19;0.00;;;0.00;;
57985;SDS011;43788;42.670;23.330;2024-03-07T05:16:47;0.10;;;0.00;;
57985;SDS011;43788;42.670;23.330;2024-03-07T05:19:29;0.10;;;0.10;;
57985;SDS011;43788;42.670;23.330;2024-03-07T05:21:56;0.00;;;0.00;;
57985;SDS011;43788;42.670;23.330;2024-03-07T05:24:21;0.20;;;0.10;;
57985;SDS011;43788;42.670;23.330;2024-03-07T05:26:46;0.20;;;0.20;;
57985;SDS011;43788;42.670;23.330;2024-03-07T05:29:12;0.10;;;0.10;;
57985;SDS011;43788;42.670;23.330;2024-03-07T05:31:37;0.15;;;0.15;;
57985;SDS011;43788;42.670;23.330;2024-03-07T05:34:09;0.10;;;0.10;;
57985;SDS011;43788;42.670;23.330;2024-03-07T05:36:34;0.10;;;0.10;;
57985;SDS011;43788;42.670;23.330;2024-03-07T05:39:01;0.00;;;0.00;;
57985;SDS011;43788;42.670;23.330;2024-03-07T05:41:37;0.20;;;0.10;;
57985;SDS011;43788;42.670;23.330;2024-03-07T05:44:03;0.25;;;0.25;;
57985;SDS011;43788;42.670;23.330;2024-03-07T05:46:33;0.10;;;0.10;;
57985;SDS011;43788;42.670;23.330;2024-03-07T05:49:06;0.17;;;0.17;;
57985;SDS011;43788;42.670;23.330;2024-03-07T05:51:33;0.20;;;0.20;;
57985;SDS011;43788;42.670;23.330;2024-03-07T05:53:58;0.10;;;0.10;;
57985;SDS011;43788;42.670;23.330;2024-03-07T05:56:24;0.10;;;0.10;;
57985;SDS011;43788;42.670;23.330;2024-03-07T05:58:51;0.10;;;0.10;;
57985;SDS011;43788;42.670;23.330;2024-03-07T06:01:17;0.55;;;0.55;;
57985;SDS011;43788;42.670;23.330;2024-03-07T06:03:43;0.17;;;0.17;;
57985;SDS011;43788;42.670;23.330;2024-03-07T06:06:10;0.10;;;0.10;;
57985;SDS011;43788;42.670;23.330;2024-03-07T06:08:36;0.10;;;0.10;;
57985;SDS011;43788;42.670;23.330;2024-03-07T06:11:02;0.10;;;0.10;;
57985;SDS011;43788;42.670;23.330;2024-03-07T06:13:28;0.05;;;0.05;;
57985;SDS011;43788;42.670;23.330;2024-03-07T06:15:53;0.10;;;0.10;;
57985;SDS011;43788;42.670;23.330;2024-03-07T06:18:19;0.45;;;0.30;;
57985;SDS011;43788;42.670;23.330;2024-03-07T06:20:44;0.10;;;0.10;;
57985;SDS011;43788;42.670;23.330;2024-03-07T06:23:10;0.45;;;0.20;;
57985;SDS011;43788;42.670;23.330;2024-03-07T06:25:37;0.08;;;0.08;;
57985;SDS011;43788;42.670;23.330;2024-03-07T06:28:12;0.00;;;0.00;;
57985;SDS011;43788;42.670;23.330;2024-03-07T06:30:39;0.30;;;0.20;;
57985;SDS011;43788;42.670;23.330;2024-03-07T06:33:06;0.13;;;0.13;;
57985;SDS011;43788;42.670;23.330;2024-03-07T06:35:32;0.10;;;0.10;;
57985;SDS011;43788;42.670;23.330;2024-03-07T06:38:01;0.10;;;0.10;;
57985;SDS011;43788;42.670;23.330;2024-03-07T06:40:28;0.13;;;0.13;;
57985;SDS011;43788;42.670;23.330;2024-03-07T06:42:55;0.30;;;0.20;;
57985;SDS011;43788;42.670;23.330;2024-03-07T06:45:21;0.38;;;0.30;;
57985;SDS011;43788;42.670;23.330;2024-03-07T06:47:49;0.20;;;0.20;;
57985;SDS011;43788;42.670;23.330;2024-03-07T06:50:15;0.20;;;0.15;;
57985;SDS011;43788;42.670;23.330;2024-03-07T06:52:42;0.50;;;0.35;;
57985;SDS011;43788;42.670;23.330;2024-03-07T06:55:09;0.20;;;0.20;;
57985;SDS011;43788;42.670;23.330;2024-03-07T06:57:36;0.20;;;0.20;;
57985;SDS011;43788;42.670;23.330;2024-03-07T07:00:01;0.10;;;0.10;;
57985;SDS011;43788;42.670;23.330;2024-03-07T07:02:37;0.43;;;0.40;;
57985;SDS011;43788;42.670;23.330;2024-03-07T07:05:04;0.25;;;0.25;;
57985;SDS011;43788;42.670;23.330;2024-03-07T07:07:36;0.38;;;0.38;;
57985;SDS011;43788;42.670;23.330;2024-03-07T07:10:03;1.80;;;0.30;;
57985;SDS011;43788;42.670;23.330;2024-03-07T07:12:32;0.10;;;0.10;;
57985;SDS011;43788;42.670;23.330;2024-03-07T07:14:58;0.52;;;0.40;;
57985;SDS011;43788;42.670;23.330;2024-03-07T07:17:23;0.30;;;0.30;;
57985;SDS011;43788;42.670;23.330;2024-03-07T07:19:50;0.10;;;0.10;;
57985;SDS011;43788;42.670;23.330;2024-03-07T07:22:20;0.30;;;0.22;;
57985;SDS011;43788;42.670;23.330;2024-03-07T07:24:46;0.25;;;0.25;;
57985;SDS011;43788;42.670;23.330;2024-03-07T07:27:12;0.30;;;0.30;;
57985;SDS011;43788;42.670;23.330;2024-03-07T07:29:37;0.10;;;0.10;;
57985;SDS011;43788;42.670;23.330;2024-03-07T07:32:04;1.50;;;1.35;;
57985;SDS011;43788;42.670;23.330;2024-03-07T07:34:29;4.75;;;2.90;;
57985;SDS011;43788;42.670;23.330;2024-03-07T07:36:55;3.75;;;3.17;;
57985;SDS011;43788;42.670;23.330;2024-03-07T07:39:21;1.70;;;1.45;;
57985;SDS011;43788;42.670;23.330;2024-03-07T07:41:46;0.57;;;0.52;;
57985;SDS011;43788;42.670;23.330;2024-03-07T07:44:12;0.70;;;0.70;;
57985;SDS011;43788;42.670;23.330;2024-03-07T07:46:40;2.38;;;1.55;;
57985;SDS011;43788;42.670;23.330;2024-03-07T07:49:06;0.70;;;0.70;;
57985;SDS011;43788;42.670;23.330;2024-03-07T07:51:31;0.20;;;0.20;;
57985;SDS011;43788;42.670;23.330;2024-03-07T07:53:57;0.38;;;0.30;;
57985;SDS011;43788;42.670;23.330;2024-03-07T07:56:23;0.63;;;0.40;;
57985;SDS011;43788;42.670;23.330;2024-03-07T07:58:53;1.20;;;0.68;;
57985;SDS011;43788;42.670;23.330;2024-03-07T08:01:18;0.73;;;0.73;;
57985;SDS011;43788;42.670;23.330;2024-03-07T08:03:45;3.30;;;2.50;;
57985;SDS011;43788;42.670;23.330;2024-03-07T08:06:10;0.20;;;0.17;;
57985;SDS011;43788;42.670;23.330;2024-03-07T08:08:36;0.60;;;0.20;;
57985;SDS011;43788;42.670;23.330;2024-03-07T08:11:01;2.97;;;1.75;;
57985;SDS011;43788;42.670;23.330;2024-03-07T08:13:27;4.13;;;2.15;;
57985;SDS011;43788;42.670;23.330;2024-03-07T08:15:52;1.27;;;1.13;;
57985;SDS011;43788;42.670;23.330;2024-03-07T08:18:19;1.50;;;0.52;;
57985;SDS011;43788;42.670;23.330;2024-03-07T08:20:48;0.47;;;0.47;;
57985;SDS011;43788;42.670;23.330;2024-03-07T08:23:14;0.68;;;0.60;;
57985;SDS011;43788;42.670;23.330;2024-03-07T08:25:39;0.20;;;0.20;;
57985;SDS011;43788;42.670;23.330;2024-03-07T08:28:06;0.40;;;0.40;;
57985;SDS011;43788;42.670;23.330;2024-03-07T08:30:31;0.20;;;0.20;;
57985;SDS011;43788;42.670;23.330;2024-03-07T08:32:57;0.20;;;0.20;;
57985;SDS011;43788;42.670;23.330;2024-03-07T08:35:27;0.20;;;0.20;;
57985;SDS011;43788;42.670;23.330;2024-03-07T08:37:54;1.30;;;0.60;;
57985;SDS011;43788;42.670;23.330;2024-03-07T08:40:21;0.10;;;0.10;;
57985;SDS011;43788;42.670;23.330;2024-03-07T08:42:49;0.08;;;0.08;;
57985;SDS011;43788;42.670;23.330;2024-03-07T08:45:16;0.60;;;0.30;;
57985;SDS011;43788;42.670;23.330;2024-03-07T08:47:44;0.20;;;0.20;;
57985;SDS011;43788;42.670;23.330;2024-03-07T08:50:11;0.10;;;0.10;;
57985;SDS011;43788;42.670;23.330;2024-03-07T08:52:38;0.10;;;0.10;;
57985;SDS011;43788;42.670;23.330;2024-03-07T08:55:05;0.10;;;0.10;;
57985;SDS011;43788;42.670;23.330;2024-03-07T08:57:34;0.13;;;0.13;;
57985;SDS011;43788;42.670;23.330;2024-03-07T08:59:59;0.10;;;0.10;;
57985;SDS011;43788;42.670;23.330;2024-03-07T09:02:26;0.52;;;0.32;;
57985;SDS011;43788;42.670;23.330;2024-03-07T09:04:52;0.05;;;0.05;;
57985;SDS011;43788;42.670;23.330;2024-03-07T09:07:17;0.10;;;0.10;;
57985;SDS011;43788;42.670;23.330;2024-03-07T09:09:43;0.08;;;0.08;;
57985;SDS011;43788;42.670;23.330;2024-03-07T09:12:10;0.30;;;0.25;;
57985;SDS011;43788;42.670;23.330;2024-03-07T09:14:36;0.10;;;0.10;;
57985;SDS011;43788;42.670;23.330;2024-03-07T09:17:02;0.05;;;0.05;;
57985;SDS011;43788;42.670;23.330;2024-03-07T09:19:29;0.10;;;0.10;;
57985;SDS011;43788;42.670;23.330;2024-03-07T09:21:55;0.10;;;0.10;;
57985;SDS011;43788;42.670;23.330;2024-03-07T09:24:21;0.50;;;0.40;;
57985;SDS011;43788;42.670;23.330;2024-03-07T09:26:48;0.20;;;0.20;;
57985;SDS011;43788;42.670;23.330;2024-03-07T09:29:14;0.10;;;0.10;;
57985;SDS011;43788;42.670;23.330;2024-03-07T09:31:41;0.10;;;0.10;;
57985;SDS011;43788;42.670;23.330;2024-03-07T09:34:06;0.85;;;0.30;;
57985;SDS011;43788;42.670;23.330;2024-03-07T09:36:36;0.20;;;0.20;;
57985;SDS011;43788;42.670;23.330;2024-03-07T09:39:02;0.32;;;0.30;;
57985;SDS011;43788;42.670;23.330;2024-03-07T09:41:28;1.70;;;0.45;;
57985;SDS011;43788;42.670;23.330;2024-03-07T09:43:53;0.05;;;0.05;;
57985;SDS011;43788;42.670;23.330;2024-03-07T09:46:21;0.32;;;0.32;;
57985;SDS011;43788;42.670;23.330;2024-03-07T09:48:47;0.03;;;0.03;;
57985;SDS011;43788;42.670;23.330;2024-03-07T09:51:14;0.32;;;0.32;;
57985;SDS011;43788;42.670;23.330;2024-03-07T09:53:42;0.17;;;0.10;;
57985;SDS011;43788;42.670;23.330;2024-03-07T09:56:08;0.30;;;0.30;;
57985;SDS011;43788;42.670;23.330;2024-03-07T09:58:35;0.30;;;0.30;;
57985;SDS011;43788;42.670;23.330;2024-03-07T10:01:02;0.10;;;0.10;;
57985;SDS011;43788;42.670;23.330;2024-03-07T10:03:29;0.10;;;0.10;;
57985;SDS011;43788;42.670;23.330;2024-03-07T10:05:54;0.20;;;0.20;;
57985;SDS011;43788;42.670;23.330;2024-03-07T10:08:20;0.10;;;0.10;;
57985;SDS011;43788;42.670;23.330;2024-03-07T10:10:47;0.20;;;0.20;;
57985;SDS011;43788;42.670;23.330;2024-03-07T10:13:13;0.35;;;0.30;;
57985;SDS011;43788;42.670;23.330;2024-03-07T10:15:39;0.28;;;0.28;;
57985;SDS011;43788;42.670;23.330;2024-03-07T10:18:08;0.20;;;0.20;;
57985;SDS011;43788;42.670;23.330;2024-03-07T10:20:36;0.10;;;0.10;;
57985;SDS011;43788;42.670;23.330;2024-03-07T10:23:02;0.20;;;0.20;;
57985;SDS011;43788;42.670;23.330;2024-03-07T10:25:28;0.15;;;0.15;;
57985;SDS011;43788;42.670;23.330;2024-03-07T10:28:04;1.85;;;0.80;;
57985;SDS011;43788;42.670;23.330;2024-03-07T10:30:41;0.32;;;0.32;;
57985;SDS011;43788;42.670;23.330;2024-03-07T10:33:11;0.40;;;0.40;;
57985;SDS011;43788;42.670;23.330;2024-03-07T10:35:39;0.63;;;0.45;;
57985;SDS011;43788;42.670;23.330;2024-03-07T10:38:04;0.30;;;0.30;;
57985;SDS011;43788;42.670;23.330;2024-03-07T10:40:33;0.22;;;0.22;;
57985;SDS011;43788;42.670;23.330;2024-03-07T10:43:09;0.40;;;0.20;;
57985;SDS011;43788;42.670;23.330;2024-03-07T10:45:44;0.40;;;0.35;;
57985;SDS011;43788;42.670;23.330;2024-03-07T10:48:12;0.40;;;0.32;;
57985;SDS011;43788;42.670;23.330;2024-03-07T10:50:52;0.47;;;0.47;;
57985;SDS011;43788;42.670;23.330;2024-03-07T10:53:26;0.20;;;0.20;;
57985;SDS011;43788;42.670;23.330;2024-03-07T10:58:42;0.30;;;0.30;;
57985;SDS011;43788;42.670;23.330;2024-03-07T11:01:22;0.15;;;0.15;;
57985;SDS011;43788;42.670;23.330;2024-03-07T11:03:49;0.30;;;0.28;;
57985;SDS011;43788;42.670;23.330;2024-03-07T11:06:17;0.10;;;0.10;;
57985;SDS011;43788;42.670;23.330;2024-03-07T11:08:43;0.30;;;0.30;;
57985;SDS011;43788;42.670;23.330;2024-03-07T11:11:11;0.10;;;0.10;;
57985;SDS011;43788;42.670;23.330;2024-03-07T11:13:37;0.75;;;0.20;;
57985;SDS011;43788;42.670;23.330;2024-03-07T11:16:03;1.17;;;0.40;;
57985;SDS011;43788;42.670;23.330;2024-03-07T11:18:29;0.10;;;0.10;;
57985;SDS011;43788;42.670;23.330;2024-03-07T11:20:56;0.77;;;0.40;;
57985;SDS011;43788;42.670;23.330;2024-03-07T11:23:25;0.22;;;0.22;;
57985;SDS011;43788;42.670;23.330;2024-03-07T11:25:55;0.20;;;0.20;;
57985;SDS011;43788;42.670;23.330;2024-03-07T11:28:28;0.20;;;0.20;;
57985;SDS011;43788;42.670;23.330;2024-03-07T11:31:06;0.10;;;0.10;;
57985;SDS011;43788;42.670;23.330;2024-03-07T11:33:35;0.25;;;0.25;;
57985;SDS011;43788;42.670;23.330;2024-03-07T11:36:02;0.22;;;0.22;;
57985;SDS011;43788;42.670;23.330;2024-03-07T11:38:32;0.25;;;0.25;;
57985;SDS011;43788;42.670;23.330;2024-03-07T11:40:59;0.10;;;0.10;;
57985;SDS011;43788;42.670;23.330;2024-03-07T11:43:27;0.47;;;0.25;;
57985;SDS011;43788;42.670;23.330;2024-03-07T11:45:53;0.10;;;0.10;;
57985;SDS011;43788;42.670;23.330;2024-03-07T11:48:19;1.40;;;0.40;;
57985;SDS011;43788;42.670;23.330;2024-03-07T11:50:45;0.75;;;0.20;;
57985;SDS011;43788;42.670;23.330;2024-03-07T11:53:11;0.63;;;0.20;;
57985;SDS011;43788;42.670;23.330;2024-03-07T11:55:37;0.80;;;0.73;;
57985;SDS011;43788;42.670;23.330;2024-03-07T11:58:14;0.68;;;0.47;;
57985;SDS011;43788;42.670;23.330;2024-03-07T12:00:41;0.30;;;0.30;;
57985;SDS011;43788;42.670;23.330;2024-03-07T12:03:10;0.57;;;0.30;;
57985;SDS011;43788;42.670;23.330;2024-03-07T12:05:39;0.30;;;0.30;;
57985;SDS011;43788;42.670;23.330;2024-03-07T12:08:06;0.40;;;0.40;;
57985;SDS011;43788;42.670;23.330;2024-03-07T12:10:35;0.32;;;0.20;;
57985;SDS011;43788;42.670;23.330;2024-03-07T12:13:01;0.63;;;0.30;;
57985;SDS011;43788;42.670;23.330;2024-03-07T12:15:28;2.03;;;0.28;;
57985;SDS011;43788;42.670;23.330;2024-03-07T12:17:55;0.20;;;0.20;;
57985;SDS011;43788;42.670;23.330;2024-03-07T12:20:22;0.40;;;0.40;;
57985;SDS011;43788;42.670;23.330;2024-03-07T12:22:59;0.30;;;0.30;;
57985;SDS011;43788;42.670;23.330;2024-03-07T12:25:28;1.60;;;0.30;;
57985;SDS011;43788;42.670;23.330;2024-03-07T12:30:31;2.03;;;0.43;;
57985;SDS011;43788;42.670;23.330;2024-03-07T12:32:58;0.50;;;0.30;;
57985;SDS011;43788;42.670;23.330;2024-03-07T12:35:25;0.50;;;0.30;;
57985;SDS011;43788;42.670;23.330;2024-03-07T12:37:51;0.30;;;0.30;;
57985;SDS011;43788;42.670;23.330;2024-03-07T12:40:19;0.20;;;0.20;;
57985;SDS011;43788;42.670;23.330;2024-03-07T12:42:46;0.30;;;0.30;;
57985;SDS011;43788;42.670;23.330;2024-03-07T12:45:12;0.30;;;0.30;;
57985;SDS011;43788;42.670;23.330;2024-03-07T12:47:43;0.22;;;0.20;;
57985;SDS011;43788;42.670;23.330;2024-03-07T12:50:09;0.32;;;0.32;;
57985;SDS011;43788;42.670;23.330;2024-03-07T12:52:36;0.43;;;0.43;;
57985;SDS011;43788;42.670;23.330;2024-03-07T12:55:02;0.20;;;0.20;;
57985;SDS011;43788;42.670;23.330;2024-03-07T12:57:31;0.35;;;0.35;;
57985;SDS011;43788;42.670;23.330;2024-03-07T12:59:56;0.28;;;0.25;;
57985;SDS011;43788;42.670;23.330;2024-03-07T13:02:22;0.35;;;0.35;;
57985;SDS011;43788;42.670;23.330;2024-03-07T13:04:52;0.30;;;0.30;;
57985;SDS011;43788;42.670;23.330;2024-03-07T13:07:18;0.40;;;0.30;;
57985;SDS011;43788;42.670;23.330;2024-03-07T13:09:43;0.45;;;0.45;;
57985;SDS011;43788;42.670;23.330;2024-03-07T13:12:09;0.28;;;0.25;;
57985;SDS011;43788;42.670;23.330;2024-03-07T13:14:35;2.58;;;0.60;;
57985;SDS011;43788;42.670;23.330;2024-03-07T13:17:01;0.68;;;0.50;;
57985;SDS011;43788;42.670;23.330;2024-03-07T13:19:27;0.30;;;0.30;;
57985;SDS011;43788;42.670;23.330;2024-03-07T13:21:54;0.28;;;0.28;;
57985;SDS011;43788;42.670;23.330;2024-03-07T13:24:19;0.65;;;0.45;;
57985;SDS011;43788;42.670;23.330;2024-03-07T13:26:45;0.30;;;0.30;;
57985;SDS011;43788;42.670;23.330;2024-03-07T13:29:13;0.40;;;0.40;;
57985;SDS011;43788;42.670;23.330;2024-03-07T13:31:39;2.30;;;0.30;;
57985;SDS011;43788;42.670;23.330;2024-03-07T13:34:07;0.30;;;0.30;;
57985;SDS011;43788;42.670;23.330;2024-03-07T13:36:38;0.70;;;0.52;;
57985;SDS011;43788;42.670;23.330;2024-03-07T13:39:06;1.23;;;0.77;;
57985;SDS011;43788;42.670;23.330;2024-03-07T13:41:36;0.60;;;0.60;;
57985;SDS011;43788;42.670;23.330;2024-03-07T13:44:03;0.40;;;0.40;;
57985;SDS011;43788;42.670;23.330;2024-03-07T13:46:29;0.30;;;0.30;;
57985;SDS011;43788;42.670;23.330;2024-03-07T13:48:56;0.57;;;0.50;;
57985;SDS011;43788;42.670;23.330;2024-03-07T13:51:32;0.65;;;0.60;;
57985;SDS011;43788;42.670;23.330;2024-03-07T13:54:01;0.57;;;0.40;;
57985;SDS011;43788;42.670;23.330;2024-03-07T13:56:50;0.30;;;0.25;;
57985;SDS011;43788;42.670;23.330;2024-03-07T13:59:31;0.20;;;0.20;;
57985;SDS011;43788;42.670;23.330;2024-03-07T14:02:13;0.13;;;0.13;;
57985;SDS011;43788;42.670;23.330;2024-03-07T14:05:08;3.25;;;0.20;;
57985;SDS011;43788;42.670;23.330;2024-03-07T14:08:13;0.43;;;0.40;;
57985;SDS011;43788;42.670;23.330;2024-03-07T14:19:43;0.52;;;0.20;;
57985;SDS011;43788;42.670;23.330;2024-03-07T14:22:30;0.30;;;0.30;;
57985;SDS011;43788;42.670;23.330;2024-03-07T14:28:01;0.30;;;0.30;;
57985;SDS011;43788;42.670;23.330;2024-03-07T14:30:40;0.10;;;0.10;;
57985;SDS011;43788;42.670;23.330;2024-03-07T14:33:09;0.20;;;0.20;;
57985;SDS011;43788;42.670;23.330;2024-03-07T14:38:29;0.38;;;0.38;;
57985;SDS011;43788;42.670;23.330;2024-03-07T14:41:07;0.55;;;0.40;;
57985;SDS011;43788;42.670;23.330;2024-03-07T14:43:36;1.35;;;0.40;;
57985;SDS011;43788;42.670;23.330;2024-03-07T14:46:01;0.40;;;0.40;;
57985;SDS011;43788;42.670;23.330;2024-03-07T14:48:27;0.50;;;0.50;;
57985;SDS011;43788;42.670;23.330;2024-03-07T14:50:54;0.55;;;0.50;;
57985;SDS011;43788;42.670;23.330;2024-03-07T14:53:19;2.35;;;0.50;;